sensor_id;sensor_type;location;lat;lon;timestamp;P1;durP1;ratioP1;P2;durP2;ratioP2
18066;SDS011;9158;51.528;7.192;2022-12-10T00:00:31;33.53;;;21.45;;
18066;SDS011;9158;51.528;7.192;2022-12-10T00:01:03;34.90;;;21.17;;
18066;SDS011;9158;51.528;7.192;2022-12-10T00:01:35;39.03;;;21.10;;
18066;SDS011;9158;51.528;7.192;2022-12-10T00:02:07;35.22;;;20.23;;
18066;SDS011;9158;51.528;7.192;2022-12-10T00:02:38;34.30;;;20.83;;
18066;SDS011;9158;51.528;7.192;2022-12-10T00:03:09;34.17;;;20.87;;
18066;SDS011;9158;51.528;7.192;2022-12-10T00:03:41;32.08;;;20.33;;
18066;SDS011;9158;51.528;7.192;2022-12-10T00:04:12;34.03;;;21.70;;
18066;SDS011;9158;51.528;7.192;2022-12-10T00:04:44;36.17;;;21.40;;
18066;SDS011;9158;51.528;7.192;2022-12-10T00:05:16;36.72;;;22.08;;
18066;SDS011;9158;51.528;7.192;2022-12-10T00:05:47;33.65;;;20.77;;
18066;SDS011;9158;51.528;7.192;2022-12-10T00:06:18;33.27;;;20.10;;
18066;SDS011;9158;51.528;7.192;2022-12-10T00:06:51;38.80;;;22.27;;
18066;SDS011;9158;51.528;7.192;2022-12-10T00:07:22;35.30;;;21.50;;
18066;SDS011;9158;51.528;7.192;2022-12-10T00:07:53;36.25;;;22.60;;
18066;SDS011;9158;51.528;7.192;2022-12-10T00:08:25;45.33;;;22.52;;
18066;SDS011;9158;51.528;7.192;2022-12-10T00:08:56;43.80;;;22.80;;
18066;SDS011;9158;51.528;7.192;2022-12-10T00:09:28;35.53;;;20.33;;
18066;SDS011;9158;51.528;7.192;2022-12-10T00:10:00;38.45;;;22.75;;
18066;SDS011;9158;51.528;7.192;2022-12-10T00:10:31;35.10;;;21.75;;
18066;SDS011;9158;51.528;7.192;2022-12-10T00:11:02;36.60;;;20.53;;
18066;SDS011;9158;51.528;7.192;2022-12-10T00:11:35;36.90;;;21.70;;
18066;SDS011;9158;51.528;7.192;2022-12-10T00:12:06;36.10;;;21.00;;
18066;SDS011;9158;51.528;7.192;2022-12-10T00:12:38;33.53;;;20.33;;
18066;SDS011;9158;51.528;7.192;2022-12-10T00:13:08;32.00;;;21.90;;
18066;SDS011;9158;51.528;7.192;2022-12-10T00:13:39;38.27;;;22.67;;
18066;SDS011;9158;51.528;7.192;2022-12-10T00:14:11;38.15;;;21.70;;
18066;SDS011;9158;51.528;7.192;2022-12-10T00:14:44;34.50;;;22.70;;
18066;SDS011;9158;51.528;7.192;2022-12-10T00:15:15;36.30;;;21.00;;
18066;SDS011;9158;51.528;7.192;2022-12-10T00:15:48;35.22;;;19.95;;
18066;SDS011;9158;51.528;7.192;2022-12-10T00:16:20;35.45;;;20.25;;
18066;SDS011;9158;51.528;7.192;2022-12-10T00:16:52;34.35;;;20.60;;
18066;SDS011;9158;51.528;7.192;2022-12-10T00:17:23;33.07;;;20.60;;
18066;SDS011;9158;51.528;7.192;2022-12-10T00:17:55;36.78;;;21.63;;
18066;SDS011;9158;51.528;7.192;2022-12-10T00:18:26;35.53;;;20.70;;
18066;SDS011;9158;51.528;7.192;2022-12-10T00:18:57;35.80;;;21.13;;
18066;SDS011;9158;51.528;7.192;2022-12-10T00:19:29;38.65;;;22.40;;
18066;SDS011;9158;51.528;7.192;2022-12-10T00:20:00;38.75;;;21.45;;
18066;SDS011;9158;51.528;7.192;2022-12-10T00:20:31;36.55;;;21.05;;
18066;SDS011;9158;51.528;7.192;2022-12-10T00:21:03;36.85;;;22.23;;
18066;SDS011;9158;51.528;7.192;2022-12-10T00:21:35;32.67;;;20.77;;
18066;SDS011;9158;51.528;7.192;2022-12-10T00:22:06;37.50;;;20.77;;
18066;SDS011;9158;51.528;7.192;2022-12-10T00:22:38;36.13;;;21.60;;
18066;SDS011;9158;51.528;7.192;2022-12-10T00:23:09;39.43;;;23.03;;
18066;SDS011;9158;51.528;7.192;2022-12-10T00:23:40;36.70;;;20.88;;
18066;SDS011;9158;51.528;7.192;2022-12-10T00:24:11;41.90;;;21.60;;
18066;SDS011;9158;51.528;7.192;2022-12-10T00:24:43;29.65;;;18.55;;
18066;SDS011;9158;51.528;7.192;2022-12-10T00:25:14;32.53;;;20.43;;
18066;SDS011;9158;51.528;7.192;2022-12-10T00:25:45;32.50;;;20.17;;
18066;SDS011;9158;51.528;7.192;2022-12-10T00:26:18;32.05;;;20.00;;
18066;SDS011;9158;51.528;7.192;2022-12-10T00:26:51;33.30;;;19.63;;
18066;SDS011;9158;51.528;7.192;2022-12-10T00:27:22;33.28;;;18.88;;
18066;SDS011;9158;51.528;7.192;2022-12-10T00:27:54;39.17;;;20.25;;
18066;SDS011;9158;51.528;7.192;2022-12-10T00:28:25;32.70;;;19.60;;
18066;SDS011;9158;51.528;7.192;2022-12-10T00:28:56;36.13;;;19.30;;
18066;SDS011;9158;51.528;7.192;2022-12-10T00:29:28;28.35;;;18.42;;
18066;SDS011;9158;51.528;7.192;2022-12-10T00:29:59;33.50;;;19.23;;
18066;SDS011;9158;51.528;7.192;2022-12-10T00:30:30;33.97;;;19.60;;
18066;SDS011;9158;51.528;7.192;2022-12-10T00:31:05;38.45;;;19.30;;
18066;SDS011;9158;51.528;7.192;2022-12-10T00:31:38;35.35;;;19.60;;
18066;SDS011;9158;51.528;7.192;2022-12-10T00:32:09;34.25;;;18.63;;
18066;SDS011;9158;51.528;7.192;2022-12-10T00:32:41;32.13;;;19.42;;
18066;SDS011;9158;51.528;7.192;2022-12-10T00:33:12;29.60;;;19.20;;
18066;SDS011;9158;51.528;7.192;2022-12-10T00:33:43;31.00;;;17.47;;
18066;SDS011;9158;51.528;7.192;2022-12-10T00:34:16;32.88;;;19.88;;
18066;SDS011;9158;51.528;7.192;2022-12-10T00:34:47;37.90;;;21.17;;
18066;SDS011;9158;51.528;7.192;2022-12-10T00:35:17;31.40;;;18.65;;
18066;SDS011;9158;51.528;7.192;2022-12-10T00:35:49;31.38;;;19.52;;
18066;SDS011;9158;51.528;7.192;2022-12-10T00:36:21;32.03;;;18.57;;
18066;SDS011;9158;51.528;7.192;2022-12-10T00:36:53;36.17;;;21.15;;
18066;SDS011;9158;51.528;7.192;2022-12-10T00:37:24;32.70;;;19.30;;
18066;SDS011;9158;51.528;7.192;2022-12-10T00:37:55;36.57;;;20.60;;
18066;SDS011;9158;51.528;7.192;2022-12-10T00:38:27;32.45;;;20.83;;
18066;SDS011;9158;51.528;7.192;2022-12-10T00:38:58;32.67;;;19.50;;
18066;SDS011;9158;51.528;7.192;2022-12-10T00:39:31;31.25;;;19.63;;
18066;SDS011;9158;51.528;7.192;2022-12-10T00:40:03;37.80;;;19.30;;
18066;SDS011;9158;51.528;7.192;2022-12-10T00:40:35;33.63;;;18.92;;
18066;SDS011;9158;51.528;7.192;2022-12-10T00:41:06;34.40;;;19.98;;
18066;SDS011;9158;51.528;7.192;2022-12-10T00:41:38;31.10;;;19.63;;
18066;SDS011;9158;51.528;7.192;2022-12-10T00:42:09;33.95;;;18.80;;
18066;SDS011;9158;51.528;7.192;2022-12-10T00:42:41;32.95;;;19.70;;
18066;SDS011;9158;51.528;7.192;2022-12-10T00:43:12;37.53;;;20.67;;
18066;SDS011;9158;51.528;7.192;2022-12-10T00:43:43;34.40;;;19.50;;
18066;SDS011;9158;51.528;7.192;2022-12-10T00:44:15;38.05;;;21.05;;
18066;SDS011;9158;51.528;7.192;2022-12-10T00:44:48;36.00;;;19.77;;
18066;SDS011;9158;51.528;7.192;2022-12-10T00:45:19;38.50;;;20.23;;
18066;SDS011;9158;51.528;7.192;2022-12-10T00:45:50;34.00;;;19.37;;
18066;SDS011;9158;51.528;7.192;2022-12-10T00:46:23;33.10;;;18.67;;
18066;SDS011;9158;51.528;7.192;2022-12-10T00:46:55;30.85;;;18.92;;
18066;SDS011;9158;51.528;7.192;2022-12-10T00:47:26;31.50;;;20.40;;
18066;SDS011;9158;51.528;7.192;2022-12-10T00:47:57;34.33;;;20.33;;
18066;SDS011;9158;51.528;7.192;2022-12-10T00:48:29;42.33;;;20.52;;
18066;SDS011;9158;51.528;7.192;2022-12-10T00:49:00;36.63;;;21.20;;
18066;SDS011;9158;51.528;7.192;2022-12-10T00:49:31;40.00;;;21.40;;
18066;SDS011;9158;51.528;7.192;2022-12-10T00:50:03;36.42;;;21.60;;
18066;SDS011;9158;51.528;7.192;2022-12-10T00:50:35;40.40;;;21.20;;
18066;SDS011;9158;51.528;7.192;2022-12-10T00:51:06;34.15;;;19.92;;
18066;SDS011;9158;51.528;7.192;2022-12-10T00:51:39;34.15;;;20.67;;
18066;SDS011;9158;51.528;7.192;2022-12-10T00:52:11;33.85;;;19.70;;
18066;SDS011;9158;51.528;7.192;2022-12-10T00:52:42;32.03;;;19.27;;
18066;SDS011;9158;51.528;7.192;2022-12-10T00:53:13;37.50;;;20.92;;
18066;SDS011;9158;51.528;7.192;2022-12-10T00:53:44;32.77;;;21.13;;
18066;SDS011;9158;51.528;7.192;2022-12-10T00:54:17;35.40;;;19.85;;
18066;SDS011;9158;51.528;7.192;2022-12-10T00:54:48;36.13;;;21.48;;
18066;SDS011;9158;51.528;7.192;2022-12-10T00:55:19;36.17;;;19.95;;
18066;SDS011;9158;51.528;7.192;2022-12-10T00:55:51;38.65;;;20.55;;
18066;SDS011;9158;51.528;7.192;2022-12-10T00:56:22;35.20;;;21.60;;
18066;SDS011;9158;51.528;7.192;2022-12-10T00:56:56;35.50;;;20.42;;
18066;SDS011;9158;51.528;7.192;2022-12-10T00:57:27;33.28;;;20.48;;
18066;SDS011;9158;51.528;7.192;2022-12-10T00:57:58;39.03;;;21.05;;
18066;SDS011;9158;51.528;7.192;2022-12-10T00:58:30;35.00;;;21.93;;
18066;SDS011;9158;51.528;7.192;2022-12-10T00:59:03;35.75;;;20.85;;
18066;SDS011;9158;51.528;7.192;2022-12-10T00:59:35;36.42;;;19.92;;
18066;SDS011;9158;51.528;7.192;2022-12-10T01:00:06;32.88;;;19.15;;
18066;SDS011;9158;51.528;7.192;2022-12-10T01:00:38;32.38;;;20.15;;
18066;SDS011;9158;51.528;7.192;2022-12-10T01:01:09;37.00;;;22.50;;
18066;SDS011;9158;51.528;7.192;2022-12-10T01:01:44;32.63;;;19.38;;
18066;SDS011;9158;51.528;7.192;2022-12-10T01:02:15;37.63;;;20.73;;
18066;SDS011;9158;51.528;7.192;2022-12-10T01:02:46;30.10;;;20.15;;
18066;SDS011;9158;51.528;7.192;2022-12-10T01:03:21;35.55;;;20.05;;
18066;SDS011;9158;51.528;7.192;2022-12-10T01:03:52;37.60;;;20.90;;
18066;SDS011;9158;51.528;7.192;2022-12-10T01:04:25;32.15;;;20.08;;
18066;SDS011;9158;51.528;7.192;2022-12-10T01:04:57;31.70;;;19.83;;
18066;SDS011;9158;51.528;7.192;2022-12-10T01:05:28;34.13;;;20.80;;
18066;SDS011;9158;51.528;7.192;2022-12-10T01:06:07;32.33;;;20.30;;
18066;SDS011;9158;51.528;7.192;2022-12-10T01:06:41;43.88;;;20.40;;
18066;SDS011;9158;51.528;7.192;2022-12-10T01:07:14;33.63;;;19.80;;
18066;SDS011;9158;51.528;7.192;2022-12-10T01:07:45;34.13;;;20.55;;
18066;SDS011;9158;51.528;7.192;2022-12-10T01:08:17;36.08;;;20.10;;
18066;SDS011;9158;51.528;7.192;2022-12-10T01:08:48;34.27;;;20.80;;
18066;SDS011;9158;51.528;7.192;2022-12-10T01:09:21;36.72;;;20.25;;
18066;SDS011;9158;51.528;7.192;2022-12-10T01:09:57;33.90;;;19.65;;
18066;SDS011;9158;51.528;7.192;2022-12-10T01:10:27;37.53;;;21.27;;
18066;SDS011;9158;51.528;7.192;2022-12-10T01:10:58;43.10;;;21.63;;
18066;SDS011;9158;51.528;7.192;2022-12-10T01:11:30;30.10;;;20.60;;
18066;SDS011;9158;51.528;7.192;2022-12-10T01:12:04;36.95;;;20.40;;
18066;SDS011;9158;51.528;7.192;2022-12-10T01:12:35;40.63;;;22.58;;
18066;SDS011;9158;51.528;7.192;2022-12-10T01:13:06;35.30;;;21.20;;
18066;SDS011;9158;51.528;7.192;2022-12-10T01:13:38;33.55;;;20.98;;
18066;SDS011;9158;51.528;7.192;2022-12-10T01:14:11;36.20;;;20.45;;
18066;SDS011;9158;51.528;7.192;2022-12-10T01:14:43;34.58;;;20.52;;
18066;SDS011;9158;51.528;7.192;2022-12-10T01:15:15;32.28;;;17.92;;
18066;SDS011;9158;51.528;7.192;2022-12-10T01:15:48;33.25;;;19.15;;
18066;SDS011;9158;51.528;7.192;2022-12-10T01:16:19;35.00;;;20.00;;
18066;SDS011;9158;51.528;7.192;2022-12-10T01:16:56;29.65;;;18.73;;
18066;SDS011;9158;51.528;7.192;2022-12-10T01:17:29;32.42;;;19.15;;
18066;SDS011;9158;51.528;7.192;2022-12-10T01:18:00;35.78;;;19.05;;
18066;SDS011;9158;51.528;7.192;2022-12-10T01:18:31;35.83;;;19.98;;
18066;SDS011;9158;51.528;7.192;2022-12-10T01:19:03;33.15;;;19.67;;
18066;SDS011;9158;51.528;7.192;2022-12-10T01:19:37;31.75;;;17.25;;
18066;SDS011;9158;51.528;7.192;2022-12-10T01:20:08;34.85;;;19.60;;
18066;SDS011;9158;51.528;7.192;2022-12-10T01:20:42;37.28;;;19.95;;
18066;SDS011;9158;51.528;7.192;2022-12-10T01:21:13;30.23;;;19.50;;
18066;SDS011;9158;51.528;7.192;2022-12-10T01:21:48;31.58;;;17.95;;
18066;SDS011;9158;51.528;7.192;2022-12-10T01:22:20;31.70;;;18.48;;
18066;SDS011;9158;51.528;7.192;2022-12-10T01:22:52;32.95;;;19.13;;
18066;SDS011;9158;51.528;7.192;2022-12-10T01:23:22;32.80;;;19.97;;
18066;SDS011;9158;51.528;7.192;2022-12-10T01:23:53;34.10;;;21.13;;
18066;SDS011;9158;51.528;7.192;2022-12-10T01:24:27;29.83;;;17.05;;
18066;SDS011;9158;51.528;7.192;2022-12-10T01:24:58;32.05;;;19.25;;
18066;SDS011;9158;51.528;7.192;2022-12-10T01:25:30;33.47;;;19.70;;
18066;SDS011;9158;51.528;7.192;2022-12-10T01:26:02;36.17;;;19.50;;
18066;SDS011;9158;51.528;7.192;2022-12-10T01:26:34;38.30;;;20.95;;
18066;SDS011;9158;51.528;7.192;2022-12-10T01:27:06;32.50;;;18.77;;
18066;SDS011;9158;51.528;7.192;2022-12-10T01:27:37;28.45;;;18.25;;
18066;SDS011;9158;51.528;7.192;2022-12-10T01:28:08;35.83;;;20.63;;
18066;SDS011;9158;51.528;7.192;2022-12-10T01:28:39;33.28;;;18.17;;
18066;SDS011;9158;51.528;7.192;2022-12-10T01:29:12;35.22;;;19.65;;
18066;SDS011;9158;51.528;7.192;2022-12-10T01:29:44;37.72;;;20.50;;
18066;SDS011;9158;51.528;7.192;2022-12-10T01:30:15;34.03;;;20.50;;
18066;SDS011;9158;51.528;7.192;2022-12-10T01:30:47;36.80;;;21.23;;
18066;SDS011;9158;51.528;7.192;2022-12-10T01:31:19;36.25;;;19.90;;
18066;SDS011;9158;51.528;7.192;2022-12-10T01:31:52;33.60;;;19.00;;
18066;SDS011;9158;51.528;7.192;2022-12-10T01:32:26;30.10;;;19.65;;
18066;SDS011;9158;51.528;7.192;2022-12-10T01:32:57;33.53;;;18.65;;
18066;SDS011;9158;51.528;7.192;2022-12-10T01:33:28;39.93;;;22.07;;
18066;SDS011;9158;51.528;7.192;2022-12-10T01:33:59;38.25;;;21.35;;
18066;SDS011;9158;51.528;7.192;2022-12-10T01:34:32;32.42;;;19.27;;
18066;SDS011;9158;51.528;7.192;2022-12-10T01:35:03;33.60;;;17.67;;
18066;SDS011;9158;51.528;7.192;2022-12-10T01:35:35;33.40;;;19.10;;
18066;SDS011;9158;51.528;7.192;2022-12-10T01:36:08;32.72;;;19.70;;
18066;SDS011;9158;51.528;7.192;2022-12-10T01:36:42;32.85;;;18.15;;
18066;SDS011;9158;51.528;7.192;2022-12-10T01:37:15;34.20;;;18.73;;
18066;SDS011;9158;51.528;7.192;2022-12-10T01:37:46;35.33;;;19.23;;
18066;SDS011;9158;51.528;7.192;2022-12-10T01:38:18;32.20;;;18.90;;
18066;SDS011;9158;51.528;7.192;2022-12-10T01:38:49;41.65;;;20.67;;
18066;SDS011;9158;51.528;7.192;2022-12-10T01:39:21;33.70;;;20.27;;
18066;SDS011;9158;51.528;7.192;2022-12-10T01:39:54;37.58;;;19.35;;
18066;SDS011;9158;51.528;7.192;2022-12-10T01:40:25;35.63;;;22.23;;
18066;SDS011;9158;51.528;7.192;2022-12-10T01:40:55;34.20;;;20.10;;
18066;SDS011;9158;51.528;7.192;2022-12-10T01:41:28;33.95;;;20.05;;
18066;SDS011;9158;51.528;7.192;2022-12-10T01:42:01;29.85;;;19.02;;
18066;SDS011;9158;51.528;7.192;2022-12-10T01:42:32;33.30;;;18.70;;
18066;SDS011;9158;51.528;7.192;2022-12-10T01:43:03;33.58;;;19.02;;
18066;SDS011;9158;51.528;7.192;2022-12-10T01:43:48;30.92;;;18.55;;
18066;SDS011;9158;51.528;7.192;2022-12-10T01:45:34;29.33;;;16.67;;
18066;SDS011;9158;51.528;7.192;2022-12-10T01:46:04;32.10;;;17.88;;
18066;SDS011;9158;51.528;7.192;2022-12-10T01:46:36;32.53;;;17.90;;
18066;SDS011;9158;51.528;7.192;2022-12-10T01:47:09;29.98;;;18.08;;
18066;SDS011;9158;51.528;7.192;2022-12-10T01:47:42;27.88;;;17.40;;
18066;SDS011;9158;51.528;7.192;2022-12-10T01:48:13;31.13;;;18.30;;
18066;SDS011;9158;51.528;7.192;2022-12-10T01:48:45;34.80;;;20.25;;
18066;SDS011;9158;51.528;7.192;2022-12-10T01:49:17;35.42;;;16.65;;
18066;SDS011;9158;51.528;7.192;2022-12-10T01:49:49;34.80;;;18.55;;
18066;SDS011;9158;51.528;7.192;2022-12-10T01:50:21;32.88;;;18.17;;
18066;SDS011;9158;51.528;7.192;2022-12-10T01:50:53;32.60;;;19.20;;
18066;SDS011;9158;51.528;7.192;2022-12-10T01:51:24;30.67;;;18.98;;
18066;SDS011;9158;51.528;7.192;2022-12-10T01:52:01;32.42;;;18.60;;
18066;SDS011;9158;51.528;7.192;2022-12-10T01:52:34;36.50;;;19.67;;
18066;SDS011;9158;51.528;7.192;2022-12-10T01:53:06;33.20;;;19.73;;
18066;SDS011;9158;51.528;7.192;2022-12-10T01:53:38;35.35;;;20.15;;
18066;SDS011;9158;51.528;7.192;2022-12-10T01:54:14;34.40;;;18.50;;
18066;SDS011;9158;51.528;7.192;2022-12-10T01:54:46;33.78;;;20.17;;
18066;SDS011;9158;51.528;7.192;2022-12-10T01:56:10;34.30;;;19.52;;
18066;SDS011;9158;51.528;7.192;2022-12-10T01:56:43;32.15;;;18.95;;
18066;SDS011;9158;51.528;7.192;2022-12-10T01:57:16;29.13;;;17.75;;
18066;SDS011;9158;51.528;7.192;2022-12-10T01:57:48;30.95;;;17.45;;
18066;SDS011;9158;51.528;7.192;2022-12-10T01:58:20;36.40;;;19.10;;
18066;SDS011;9158;51.528;7.192;2022-12-10T01:58:53;33.42;;;19.60;;
18066;SDS011;9158;51.528;7.192;2022-12-10T01:59:26;32.95;;;20.35;;
18066;SDS011;9158;51.528;7.192;2022-12-10T02:00:00;29.65;;;18.38;;
18066;SDS011;9158;51.528;7.192;2022-12-10T02:00:53;29.40;;;18.35;;
18066;SDS011;9158;51.528;7.192;2022-12-10T02:01:32;35.67;;;19.27;;
18066;SDS011;9158;51.528;7.192;2022-12-10T02:02:17;31.67;;;18.75;;
18066;SDS011;9158;51.528;7.192;2022-12-10T02:03:07;34.72;;;18.17;;
18066;SDS011;9158;51.528;7.192;2022-12-10T02:03:50;27.00;;;18.10;;
18066;SDS011;9158;51.528;7.192;2022-12-10T02:04:28;32.88;;;18.20;;
18066;SDS011;9158;51.528;7.192;2022-12-10T02:05:09;30.65;;;19.35;;
18066;SDS011;9158;51.528;7.192;2022-12-10T02:05:54;32.38;;;18.50;;
18066;SDS011;9158;51.528;7.192;2022-12-10T02:06:37;30.38;;;19.40;;
18066;SDS011;9158;51.528;7.192;2022-12-10T02:07:16;30.15;;;18.42;;
18066;SDS011;9158;51.528;7.192;2022-12-10T02:08:00;37.05;;;21.13;;
18066;SDS011;9158;51.528;7.192;2022-12-10T02:08:39;28.63;;;18.23;;
18066;SDS011;9158;51.528;7.192;2022-12-10T02:09:19;30.52;;;17.55;;
18066;SDS011;9158;51.528;7.192;2022-12-10T02:09:58;31.27;;;17.00;;
18066;SDS011;9158;51.528;7.192;2022-12-10T02:10:36;32.63;;;18.73;;
18066;SDS011;9158;51.528;7.192;2022-12-10T02:11:17;33.58;;;19.05;;
18066;SDS011;9158;51.528;7.192;2022-12-10T02:11:58;27.75;;;18.30;;
18066;SDS011;9158;51.528;7.192;2022-12-10T02:12:40;30.52;;;18.65;;
18066;SDS011;9158;51.528;7.192;2022-12-10T02:13:17;31.60;;;18.10;;
18066;SDS011;9158;51.528;7.192;2022-12-10T02:13:55;28.48;;;17.60;;
18066;SDS011;9158;51.528;7.192;2022-12-10T02:15:24;31.90;;;20.00;;
18066;SDS011;9158;51.528;7.192;2022-12-10T02:16:02;38.65;;;19.20;;
18066;SDS011;9158;51.528;7.192;2022-12-10T02:16:37;35.58;;;19.10;;
18066;SDS011;9158;51.528;7.192;2022-12-10T02:17:11;31.50;;;18.63;;
18066;SDS011;9158;51.528;7.192;2022-12-10T02:17:48;37.53;;;20.02;;
18066;SDS011;9158;51.528;7.192;2022-12-10T02:18:24;31.67;;;17.63;;
18066;SDS011;9158;51.528;7.192;2022-12-10T02:18:58;24.98;;;17.63;;
18066;SDS011;9158;51.528;7.192;2022-12-10T02:19:51;34.83;;;19.45;;
18066;SDS011;9158;51.528;7.192;2022-12-10T02:20:28;32.95;;;18.45;;
18066;SDS011;9158;51.528;7.192;2022-12-10T02:21:06;30.42;;;17.48;;
18066;SDS011;9158;51.528;7.192;2022-12-10T02:21:43;30.30;;;18.23;;
18066;SDS011;9158;51.528;7.192;2022-12-10T02:22:17;27.60;;;16.50;;
18066;SDS011;9158;51.528;7.192;2022-12-10T02:22:52;29.92;;;18.55;;
18066;SDS011;9158;51.528;7.192;2022-12-10T02:23:30;28.67;;;17.80;;
18066;SDS011;9158;51.528;7.192;2022-12-10T02:24:06;32.92;;;18.52;;
18066;SDS011;9158;51.528;7.192;2022-12-10T02:24:41;37.45;;;17.90;;
18066;SDS011;9158;51.528;7.192;2022-12-10T02:25:15;28.83;;;18.38;;
18066;SDS011;9158;51.528;7.192;2022-12-10T02:25:53;32.28;;;19.60;;
18066;SDS011;9158;51.528;7.192;2022-12-10T02:26:30;33.30;;;19.05;;
18066;SDS011;9158;51.528;7.192;2022-12-10T02:27:10;31.40;;;19.98;;
18066;SDS011;9158;51.528;7.192;2022-12-10T02:27:58;30.27;;;18.20;;
18066;SDS011;9158;51.528;7.192;2022-12-10T02:28:37;33.03;;;19.88;;
18066;SDS011;9158;51.528;7.192;2022-12-10T02:29:18;37.13;;;17.27;;
18066;SDS011;9158;51.528;7.192;2022-12-10T02:29:51;28.70;;;17.67;;
18066;SDS011;9158;51.528;7.192;2022-12-10T02:30:24;31.98;;;17.50;;
18066;SDS011;9158;51.528;7.192;2022-12-10T02:30:56;28.98;;;17.55;;
18066;SDS011;9158;51.528;7.192;2022-12-10T02:31:30;31.90;;;19.15;;
18066;SDS011;9158;51.528;7.192;2022-12-10T02:32:04;30.10;;;18.20;;
18066;SDS011;9158;51.528;7.192;2022-12-10T02:32:40;27.45;;;17.05;;
18066;SDS011;9158;51.528;7.192;2022-12-10T02:33:14;30.27;;;16.42;;
18066;SDS011;9158;51.528;7.192;2022-12-10T02:33:49;34.80;;;19.10;;
18066;SDS011;9158;51.528;7.192;2022-12-10T02:34:25;31.45;;;17.45;;
18066;SDS011;9158;51.528;7.192;2022-12-10T02:35:02;27.65;;;16.58;;
18066;SDS011;9158;51.528;7.192;2022-12-10T02:35:37;32.95;;;19.15;;
18066;SDS011;9158;51.528;7.192;2022-12-10T02:36:13;34.30;;;18.17;;
18066;SDS011;9158;51.528;7.192;2022-12-10T02:36:46;30.58;;;18.52;;
18066;SDS011;9158;51.528;7.192;2022-12-10T02:37:20;28.98;;;17.63;;
18066;SDS011;9158;51.528;7.192;2022-12-10T02:38:01;30.90;;;16.77;;
18066;SDS011;9158;51.528;7.192;2022-12-10T02:38:40;35.55;;;17.90;;
18066;SDS011;9158;51.528;7.192;2022-12-10T02:39:14;27.20;;;16.17;;
18066;SDS011;9158;51.528;7.192;2022-12-10T02:39:54;36.80;;;19.17;;
18066;SDS011;9158;51.528;7.192;2022-12-10T02:40:30;31.40;;;18.25;;
18066;SDS011;9158;51.528;7.192;2022-12-10T02:41:06;28.27;;;17.30;;
18066;SDS011;9158;51.528;7.192;2022-12-10T02:41:45;31.33;;;17.70;;
18066;SDS011;9158;51.528;7.192;2022-12-10T02:42:20;27.67;;;17.38;;
18066;SDS011;9158;51.528;7.192;2022-12-10T02:42:57;30.63;;;16.98;;
18066;SDS011;9158;51.528;7.192;2022-12-10T02:43:28;24.73;;;17.00;;
18066;SDS011;9158;51.528;7.192;2022-12-10T02:44:02;35.10;;;19.50;;
18066;SDS011;9158;51.528;7.192;2022-12-10T02:44:38;30.60;;;18.55;;
18066;SDS011;9158;51.528;7.192;2022-12-10T02:45:13;28.50;;;16.55;;
18066;SDS011;9158;51.528;7.192;2022-12-10T02:45:44;27.38;;;17.85;;
18066;SDS011;9158;51.528;7.192;2022-12-10T02:46:18;30.30;;;17.90;;
18066;SDS011;9158;51.528;7.192;2022-12-10T02:46:52;33.58;;;17.98;;
18066;SDS011;9158;51.528;7.192;2022-12-10T02:47:27;29.48;;;18.92;;
18066;SDS011;9158;51.528;7.192;2022-12-10T02:48:00;32.72;;;17.73;;
18066;SDS011;9158;51.528;7.192;2022-12-10T02:48:39;27.02;;;17.20;;
18066;SDS011;9158;51.528;7.192;2022-12-10T02:49:12;33.13;;;17.92;;
18066;SDS011;9158;51.528;7.192;2022-12-10T02:49:46;29.23;;;17.70;;
18066;SDS011;9158;51.528;7.192;2022-12-10T02:50:20;31.05;;;17.90;;
18066;SDS011;9158;51.528;7.192;2022-12-10T02:50:53;28.25;;;16.80;;
18066;SDS011;9158;51.528;7.192;2022-12-10T02:51:25;29.48;;;18.73;;
18066;SDS011;9158;51.528;7.192;2022-12-10T02:51:56;32.38;;;18.50;;
18066;SDS011;9158;51.528;7.192;2022-12-10T02:52:28;28.02;;;17.55;;
18066;SDS011;9158;51.528;7.192;2022-12-10T02:52:59;31.88;;;17.17;;
18066;SDS011;9158;51.528;7.192;2022-12-10T02:53:31;29.83;;;19.15;;
18066;SDS011;9158;51.528;7.192;2022-12-10T02:54:03;29.73;;;19.08;;
18066;SDS011;9158;51.528;7.192;2022-12-10T02:54:40;32.80;;;18.08;;
18066;SDS011;9158;51.528;7.192;2022-12-10T02:55:16;28.85;;;17.25;;
18066;SDS011;9158;51.528;7.192;2022-12-10T02:55:56;27.40;;;17.02;;
18066;SDS011;9158;51.528;7.192;2022-12-10T02:56:44;28.05;;;16.40;;
18066;SDS011;9158;51.528;7.192;2022-12-10T02:57:26;30.10;;;17.30;;
18066;SDS011;9158;51.528;7.192;2022-12-10T02:58:06;32.47;;;19.02;;
18066;SDS011;9158;51.528;7.192;2022-12-10T02:58:47;37.13;;;20.17;;
18066;SDS011;9158;51.528;7.192;2022-12-10T02:59:27;27.40;;;16.40;;
18066;SDS011;9158;51.528;7.192;2022-12-10T03:00:08;29.75;;;17.42;;
18066;SDS011;9158;51.528;7.192;2022-12-10T03:00:53;28.15;;;16.30;;
18066;SDS011;9158;51.528;7.192;2022-12-10T03:01:36;27.17;;;17.23;;
18066;SDS011;9158;51.528;7.192;2022-12-10T03:02:16;29.02;;;16.98;;
18066;SDS011;9158;51.528;7.192;2022-12-10T03:02:59;30.63;;;18.15;;
18066;SDS011;9158;51.528;7.192;2022-12-10T03:03:43;30.77;;;18.45;;
18066;SDS011;9158;51.528;7.192;2022-12-10T03:04:22;30.25;;;17.08;;
18066;SDS011;9158;51.528;7.192;2022-12-10T03:04:59;32.28;;;18.75;;
18066;SDS011;9158;51.528;7.192;2022-12-10T03:05:35;27.90;;;16.67;;
18066;SDS011;9158;51.528;7.192;2022-12-10T03:06:16;29.50;;;18.60;;
18066;SDS011;9158;51.528;7.192;2022-12-10T03:06:52;34.83;;;17.05;;
18066;SDS011;9158;51.528;7.192;2022-12-10T03:07:27;29.65;;;18.33;;
18066;SDS011;9158;51.528;7.192;2022-12-10T03:08:08;32.15;;;18.92;;
18066;SDS011;9158;51.528;7.192;2022-12-10T03:08:45;31.63;;;17.00;;
18066;SDS011;9158;51.528;7.192;2022-12-10T03:09:22;30.88;;;16.23;;
18066;SDS011;9158;51.528;7.192;2022-12-10T03:09:59;30.58;;;18.15;;
18066;SDS011;9158;51.528;7.192;2022-12-10T03:10:35;31.85;;;18.05;;
18066;SDS011;9158;51.528;7.192;2022-12-10T03:11:12;29.80;;;18.00;;
18066;SDS011;9158;51.528;7.192;2022-12-10T03:11:45;27.92;;;18.00;;
18066;SDS011;9158;51.528;7.192;2022-12-10T03:12:20;28.27;;;17.38;;
18066;SDS011;9158;51.528;7.192;2022-12-10T03:12:58;30.98;;;19.23;;
18066;SDS011;9158;51.528;7.192;2022-12-10T03:13:32;34.83;;;19.60;;
18066;SDS011;9158;51.528;7.192;2022-12-10T03:14:08;30.92;;;19.25;;
18066;SDS011;9158;51.528;7.192;2022-12-10T03:14:47;31.77;;;18.83;;
18066;SDS011;9158;51.528;7.192;2022-12-10T03:15:20;29.98;;;18.98;;
18066;SDS011;9158;51.528;7.192;2022-12-10T03:15:52;37.63;;;20.95;;
18066;SDS011;9158;51.528;7.192;2022-12-10T03:16:27;32.38;;;19.45;;
18066;SDS011;9158;51.528;7.192;2022-12-10T03:17:01;33.13;;;18.52;;
18066;SDS011;9158;51.528;7.192;2022-12-10T03:17:34;36.53;;;19.80;;
18066;SDS011;9158;51.528;7.192;2022-12-10T03:18:09;34.42;;;18.83;;
18066;SDS011;9158;51.528;7.192;2022-12-10T03:18:42;36.33;;;19.77;;
18066;SDS011;9158;51.528;7.192;2022-12-10T03:19:18;32.35;;;19.13;;
18066;SDS011;9158;51.528;7.192;2022-12-10T03:19:52;29.05;;;18.45;;
18066;SDS011;9158;51.528;7.192;2022-12-10T03:20:24;38.20;;;19.58;;
18066;SDS011;9158;51.528;7.192;2022-12-10T03:20:58;31.95;;;20.23;;
18066;SDS011;9158;51.528;7.192;2022-12-10T03:21:35;31.38;;;19.27;;
18066;SDS011;9158;51.528;7.192;2022-12-10T03:22:11;30.48;;;18.85;;
18066;SDS011;9158;51.528;7.192;2022-12-10T03:22:45;30.55;;;19.17;;
18066;SDS011;9158;51.528;7.192;2022-12-10T03:23:18;34.72;;;18.70;;
18066;SDS011;9158;51.528;7.192;2022-12-10T03:23:50;27.52;;;17.52;;
18066;SDS011;9158;51.528;7.192;2022-12-10T03:24:21;27.08;;;17.95;;